createdAt,value
2018-05-09T00:00:05.430Z,14.70
2018-05-09T00:01:05.541Z,14.70
2018-05-09T00:02:05.869Z,14.60
2018-05-09T00:03:05.201Z,14.60
2018-05-09T00:04:10.732Z,14.50
2018-05-09T00:05:06.082Z,14.50
2018-05-09T00:06:05.417Z,14.50
2018-05-09T00:07:05.185Z,14.40
2018-05-09T00:08:05.819Z,14.40
2018-05-09T00:09:05.545Z,14.30
2018-05-09T00:10:08.991Z,14.30
2018-05-09T00:11:10.480Z,14.20
2018-05-09T00:12:05.812Z,14.20
2018-05-09T00:13:05.124Z,14.30
2018-05-09T00:14:05.742Z,14.30
2018-05-09T00:15:05.940Z,14.20
2018-05-09T00:16:05.513Z,14.20
2018-05-09T00:17:05.349Z,14.20
2018-05-09T00:18:05.399Z,14.20
2018-05-09T00:19:05.976Z,14.20
2018-05-09T00:20:08.700Z,14.20
2018-05-09T00:21:05.094Z,14.20
2018-05-09T00:22:11.034Z,14.20
2018-05-09T00:23:10.482Z,14.20
2018-05-09T00:24:05.466Z,14.10
2018-05-09T00:25:08.917Z,14.20
2018-05-09T00:26:05.443Z,14.10
2018-05-09T00:27:06.462Z,14.10
2018-05-09T00:28:09.069Z,14.10
2018-05-09T00:29:10.456Z,14.20
2018-05-09T00:30:08.375Z,14.10
2018-05-09T00:31:05.828Z,14.10
2018-05-09T00:32:05.842Z,14.10
2018-05-09T00:33:06.098Z,14.10
2018-05-09T00:34:05.121Z,14.00
2018-05-09T00:35:05.511Z,14.00
2018-05-09T00:36:10.282Z,14.10
2018-05-09T00:37:05.680Z,14.00
2018-05-09T00:38:09.786Z,14.00
2018-05-09T00:39:05.765Z,14.00
2018-05-09T00:40:08.235Z,13.90
2018-05-09T00:41:10.762Z,13.90
2018-05-09T00:42:08.912Z,13.90
2018-05-09T00:43:10.415Z,13.90
2018-05-09T00:44:06.306Z,13.90
2018-05-09T00:45:05.435Z,13.90
2018-05-09T00:46:08.309Z,13.90
2018-05-09T00:47:05.685Z,13.90
2018-05-09T00:48:05.984Z,13.90
2018-05-09T00:49:05.191Z,13.80
2018-05-09T00:50:06.215Z,13.90
2018-05-09T00:51:08.211Z,13.80
2018-05-09T00:52:10.838Z,13.80
2018-05-09T00:53:05.619Z,13.70
2018-05-09T00:54:05.615Z,13.70
2018-05-09T00:55:06.254Z,13.70
2018-05-09T00:56:08.038Z,13.60
2018-05-09T00:57:10.533Z,13.60
2018-05-09T00:58:09.004Z,13.60
2018-05-09T00:59:05.566Z,13.60
2018-05-09T01:00:08.758Z,13.50
2018-05-09T01:01:05.206Z,13.50
2018-05-09T01:02:08.284Z,13.50
2018-05-09T01:03:05.730Z,13.50
2018-05-09T01:04:05.107Z,13.50
2018-05-09T01:05:10.410Z,13.40
2018-05-09T01:06:05.520Z,13.40
2018-05-09T01:07:05.728Z,13.40
2018-05-09T01:08:10.472Z,13.40
2018-05-09T01:09:05.786Z,13.40
2018-05-09T01:10:07.746Z,13.40
2018-05-09T01:11:10.242Z,13.30
2018-05-09T01:12:05.266Z,13.30
2018-05-09T01:13:05.744Z,13.30
2018-05-09T01:14:09.017Z,13.30
2018-05-09T01:15:10.699Z,13.30
2018-05-09T01:16:07.669Z,13.30
2018-05-09T01:17:05.632Z,13.30
2018-05-09T01:18:06.026Z,13.30
2018-05-09T01:19:08.620Z,13.20
2018-05-09T01:20:05.438Z,13.20
2018-05-09T01:21:06.204Z,13.20
2018-05-09T01:22:10.781Z,13.20
2018-05-09T01:23:05.425Z,13.10
2018-05-09T01:24:08.444Z,13.10
2018-05-09T01:25:08.377Z,13.10
2018-05-09T01:26:05.992Z,13.10
2018-05-09T01:27:05.430Z,13.00
2018-05-09T01:28:08.635Z,13.00
2018-05-09T01:29:05.070Z,13.00
2018-05-09T01:30:05.696Z,13.00
2018-05-09T01:31:06.131Z,13.00
2018-05-09T01:32:05.482Z,13.00
2018-05-09T01:33:10.400Z,12.90
2018-05-09T01:34:05.402Z,12.90
2018-05-09T01:35:05.745Z,12.90
2018-05-09T01:36:05.772Z,12.90
2018-05-09T01:37:15.901Z,12.90
2018-05-09T01:38:05.262Z,12.90
2018-05-09T01:39:05.434Z,12.80
2018-05-09T01:40:05.191Z,12.80
2018-05-09T01:41:08.121Z,12.80
2018-05-09T01:42:05.512Z,12.80
2018-05-09T01:43:05.598Z,0.00
2018-05-09T01:44:10.833Z,12.70
2018-05-09T01:45:05.837Z,12.70
2018-05-09T01:46:05.950Z,12.80
2018-05-09T01:47:05.098Z,12.70
2018-05-09T01:48:08.281Z,12.70
2018-05-09T01:49:08.996Z,12.70
2018-05-09T01:50:08.834Z,12.70
2018-05-09T01:51:13.829Z,12.70
2018-05-09T01:52:05.259Z,12.70
2018-05-09T01:53:05.893Z,12.70
2018-05-09T01:54:05.522Z,12.60
2018-05-09T01:55:06.102Z,12.60
2018-05-09T01:56:05.062Z,12.60
2018-05-09T01:57:10.462Z,12.60
2018-05-09T01:58:05.903Z,12.60
2018-05-09T01:59:06.055Z,12.60
2018-05-09T02:00:05.453Z,12.60
2018-05-09T02:01:05.903Z,12.50
2018-05-09T02:02:05.212Z,12.50
2018-05-09T02:03:05.283Z,12.50
2018-05-09T02:04:10.776Z,12.50
2018-05-09T02:05:05.907Z,12.50
2018-05-09T02:06:05.410Z,12.50
2018-05-09T02:07:16.083Z,12.50
2018-05-09T02:08:05.387Z,12.40
2018-05-09T02:09:05.826Z,12.40
2018-05-09T02:10:05.419Z,12.30
2018-05-09T02:11:05.553Z,12.30
2018-05-09T02:12:05.741Z,12.30
2018-05-09T02:13:05.820Z,12.30
2018-05-09T02:14:05.940Z,12.20
2018-05-09T02:15:10.442Z,12.20
2018-05-09T02:16:05.602Z,12.20
2018-05-09T02:17:05.586Z,12.20
2018-05-09T02:18:08.560Z,12.20
2018-05-09T02:19:06.221Z,12.20
2018-05-09T02:20:05.803Z,12.20
2018-05-09T02:21:05.947Z,12.20
2018-05-09T02:22:05.065Z,12.20
2018-05-09T02:23:05.656Z,12.20
2018-05-09T02:24:08.764Z,12.20
2018-05-09T02:25:05.283Z,12.10
2018-05-09T02:26:05.472Z,12.20
2018-05-09T02:27:08.482Z,12.20
2018-05-09T02:28:08.407Z,12.20
2018-05-09T02:29:05.877Z,12.20
2018-05-09T02:30:05.130Z,12.10
2018-05-09T02:31:10.699Z,12.10
2018-05-09T02:32:05.425Z,12.10
2018-05-09T02:33:11.159Z,12.10
2018-05-09T02:34:05.481Z,12.00
2018-05-09T02:35:05.258Z,12.00
2018-05-09T02:36:05.483Z,12.00
2018-05-09T02:37:05.384Z,12.00
2018-05-09T02:38:05.583Z,12.00
2018-05-09T02:39:05.885Z,11.90
2018-05-09T02:40:08.236Z,11.90
2018-05-09T02:41:05.877Z,11.90
2018-05-09T02:42:08.330Z,11.90
2018-05-09T02:43:05.958Z,11.90
2018-05-09T02:44:05.370Z,11.90
2018-05-09T02:45:05.479Z,11.90
2018-05-09T02:46:05.492Z,11.90
2018-05-09T02:47:08.067Z,11.90
2018-05-09T02:48:05.582Z,11.90
2018-05-09T02:49:05.397Z,11.90
2018-05-09T02:50:05.906Z,11.90
2018-05-09T02:51:05.361Z,11.90
2018-05-09T02:52:08.356Z,11.90
2018-05-09T02:53:05.912Z,11.90
2018-05-09T02:54:05.373Z,11.90
2018-05-09T02:55:05.856Z,11.90
2018-05-09T02:56:05.439Z,11.90
2018-05-09T02:57:05.812Z,11.90
2018-05-09T02:58:05.451Z,11.90
2018-05-09T02:59:08.411Z,11.90
2018-05-09T03:00:05.989Z,11.90
2018-05-09T03:01:05.292Z,11.80
2018-05-09T03:02:05.630Z,11.80
2018-05-09T03:03:05.363Z,11.90
2018-05-09T03:04:10.665Z,11.80
2018-05-09T03:05:09.643Z,11.80
2018-05-09T03:06:05.547Z,11.80
2018-05-09T03:07:07.743Z,11.80
2018-05-09T03:08:05.729Z,11.80
2018-05-09T03:09:08.450Z,11.80
2018-05-09T03:10:05.925Z,11.80
2018-05-09T03:11:05.854Z,11.80
2018-05-09T03:12:05.370Z,11.80
2018-05-09T03:13:05.163Z,11.80
2018-05-09T03:14:05.578Z,11.80
2018-05-09T03:15:08.271Z,11.80
2018-05-09T03:16:05.802Z,11.80
2018-05-09T03:17:06.031Z,11.80
2018-05-09T03:18:05.557Z,11.80
2018-05-09T03:19:08.898Z,11.80
2018-05-09T03:20:10.503Z,11.90
2018-05-09T03:21:09.016Z,11.80
2018-05-09T03:22:05.432Z,11.80
2018-05-09T03:23:05.560Z,11.80
2018-05-09T03:24:09.010Z,11.80
2018-05-09T03:25:09.138Z,11.80
2018-05-09T03:26:05.939Z,11.80
2018-05-09T03:27:05.713Z,11.80
2018-05-09T03:28:08.578Z,11.70
2018-05-09T03:29:10.944Z,11.80
2018-05-09T03:30:09.337Z,11.70
2018-05-09T03:31:08.198Z,11.70
2018-05-09T03:32:10.625Z,11.70
2018-05-09T03:33:08.880Z,11.70
2018-05-09T03:34:05.342Z,11.70
2018-05-09T03:35:08.332Z,11.70
2018-05-09T03:36:11.717Z,11.70
2018-05-09T03:37:08.505Z,11.70
2018-05-09T03:38:10.900Z,11.70
2018-05-09T03:39:05.393Z,11.70
2018-05-09T03:40:05.807Z,11.70
2018-05-09T03:41:08.321Z,11.70
2018-05-09T03:42:05.769Z,11.70
2018-05-09T03:43:10.347Z,11.70
2018-05-09T03:44:06.036Z,11.70
2018-05-09T03:45:05.910Z,11.70
2018-05-09T03:46:05.002Z,11.70
2018-05-09T03:47:07.788Z,11.70
2018-05-09T03:48:05.188Z,11.70
2018-05-09T03:49:05.518Z,11.70
2018-05-09T03:50:05.426Z,11.80
2018-05-09T03:51:09.199Z,11.80
2018-05-09T03:52:05.577Z,11.80
2018-05-09T03:53:10.145Z,11.70
2018-05-09T03:54:10.292Z,11.70
2018-05-09T03:55:05.147Z,11.80
2018-05-09T03:56:10.724Z,11.80
2018-05-09T03:57:05.356Z,11.80
2018-05-09T03:58:06.082Z,11.80
2018-05-09T03:59:05.624Z,11.80
2018-05-09T04:00:05.712Z,11.80
2018-05-09T04:01:08.229Z,11.90
2018-05-09T04:02:05.596Z,11.90
2018-05-09T04:03:05.477Z,11.90
2018-05-09T04:04:05.823Z,11.90
2018-05-09T04:05:05.978Z,11.90
2018-05-09T04:06:05.407Z,11.90
2018-05-09T04:07:07.815Z,11.90
2018-05-09T04:08:05.647Z,11.90
2018-05-09T04:09:05.349Z,11.90
2018-05-09T04:10:05.703Z,11.90
2018-05-09T04:11:05.621Z,11.90
2018-05-09T04:12:09.111Z,11.90
2018-05-09T04:13:05.874Z,11.90
2018-05-09T04:14:05.717Z,11.90
2018-05-09T04:15:08.465Z,11.90
2018-05-09T04:16:07.076Z,11.90
2018-05-09T04:17:08.351Z,11.90
2018-05-09T04:18:10.995Z,12.00
2018-05-09T04:19:08.011Z,12.00
2018-05-09T04:20:06.019Z,12.10
2018-05-09T04:21:05.831Z,12.10
2018-05-09T04:22:06.075Z,12.30
2018-05-09T04:23:10.806Z,12.30
2018-05-09T04:24:06.201Z,12.40
2018-05-09T04:25:06.338Z,12.60
2018-05-09T04:26:05.288Z,12.70
2018-05-09T04:27:06.193Z,12.90
2018-05-09T04:28:10.879Z,13.20
2018-05-09T04:29:05.480Z,13.20
2018-05-09T04:30:05.183Z,13.40
2018-05-09T04:31:08.497Z,13.70
2018-05-09T04:32:13.744Z,13.90
2018-05-09T04:33:05.362Z,13.90
2018-05-09T04:34:05.559Z,14.00
2018-05-09T04:35:08.464Z,14.30
2018-05-09T04:36:08.884Z,14.50
2018-05-09T04:37:05.518Z,14.50
2018-05-09T04:38:09.076Z,14.80
2018-05-09T04:39:05.844Z,14.80
2018-05-09T04:40:05.719Z,14.90
2018-05-09T04:41:15.643Z,15.20
2018-05-09T04:42:05.249Z,15.30
2018-05-09T04:43:10.940Z,15.40
2018-05-09T04:44:05.435Z,15.50
2018-05-09T04:45:11.087Z,15.80
2018-05-09T04:46:05.790Z,15.80
2018-05-09T04:47:08.832Z,16.00
2018-05-09T04:48:05.822Z,15.90
2018-05-09T04:49:10.633Z,16.10
2018-05-09T04:50:08.689Z,16.20
2018-05-09T04:51:12.896Z,16.10
2018-05-09T04:52:05.385Z,16.10
2018-05-09T04:53:06.426Z,16.10
2018-05-09T04:54:05.583Z,16.10
2018-05-09T04:55:05.288Z,16.10
2018-05-09T04:56:11.034Z,16.10
2018-05-09T04:57:10.702Z,16.20
2018-05-09T04:58:05.383Z,16.20
2018-05-09T04:59:06.045Z,16.20
2018-05-09T05:00:05.825Z,16.30
2018-05-09T05:01:10.744Z,16.30
2018-05-09T05:02:05.383Z,16.30
2018-05-09T05:03:11.225Z,16.20
2018-05-09T05:04:10.513Z,16.20
2018-05-09T05:05:06.477Z,16.20
2018-05-09T05:06:05.588Z,16.10
2018-05-09T05:07:07.993Z,16.00
2018-05-09T05:08:05.509Z,16.00
2018-05-09T05:09:05.404Z,16.10
2018-05-09T05:10:08.570Z,16.30
2018-05-09T05:11:11.308Z,16.50
2018-05-09T05:12:10.782Z,16.60
2018-05-09T05:13:09.267Z,16.80
2018-05-09T05:14:05.202Z,16.80
2018-05-09T05:15:05.599Z,17.00
2018-05-09T05:16:09.110Z,17.30
2018-05-09T05:17:08.348Z,17.40
2018-05-09T05:18:08.606Z,17.60
2018-05-09T05:19:10.414Z,17.80
2018-05-09T05:20:05.334Z,17.80
2018-05-09T05:21:08.900Z,18.10
2018-05-09T05:22:08.437Z,18.40
2018-05-09T05:23:05.960Z,18.30
2018-05-09T05:24:08.417Z,18.60
2018-05-09T05:25:05.948Z,18.60
2018-05-09T05:26:05.770Z,18.80
2018-05-09T05:27:05.659Z,18.90
2018-05-09T05:28:06.215Z,19.00
2018-05-09T05:29:08.722Z,19.20
2018-05-09T05:30:08.230Z,19.30
2018-05-09T05:31:08.448Z,19.30
2018-05-09T05:32:05.870Z,19.30
2018-05-09T05:33:05.911Z,19.30
2018-05-09T05:34:08.102Z,19.50
2018-05-09T05:35:06.095Z,19.50
2018-05-09T05:36:10.980Z,19.70
2018-05-09T05:37:10.493Z,19.80
2018-05-09T05:38:06.197Z,19.80
2018-05-09T05:39:06.093Z,19.90
2018-05-09T05:40:08.618Z,20.00
2018-05-09T05:41:05.622Z,20.10
2018-05-09T05:42:10.381Z,20.20
2018-05-09T05:43:05.864Z,20.20
2018-05-09T05:44:06.029Z,20.30
2018-05-09T05:45:05.622Z,20.40
2018-05-09T05:46:05.975Z,20.50
2018-05-09T05:47:10.772Z,20.80
2018-05-09T05:48:05.480Z,20.70
2018-05-09T05:49:05.617Z,20.80
2018-05-09T05:50:08.381Z,20.80
2018-05-09T05:51:06.418Z,20.80
2018-05-09T05:52:06.549Z,20.70
2018-05-09T05:53:06.208Z,20.60
2018-05-09T05:54:10.674Z,20.40
2018-05-09T05:55:08.648Z,20.10
2018-05-09T05:56:06.727Z,20.10
2018-05-09T05:57:10.647Z,19.80
2018-05-09T05:58:05.427Z,19.70
2018-05-09T05:59:06.377Z,19.60
2018-05-09T06:00:05.937Z,19.50
2018-05-09T06:01:18.716Z,19.20
2018-05-09T06:02:05.507Z,19.20
2018-05-09T06:03:06.280Z,19.10
2018-05-09T06:04:11.080Z,18.80
2018-05-09T06:05:10.814Z,18.70
2018-05-09T06:06:05.790Z,18.60
2018-05-09T06:07:05.515Z,18.60
2018-05-09T06:08:05.564Z,18.50
2018-05-09T06:09:05.613Z,18.60
2018-05-09T06:10:07.751Z,18.80
2018-05-09T06:11:05.276Z,18.80
2018-05-09T06:12:05.774Z,18.90
2018-05-09T06:13:08.674Z,19.20
2018-05-09T06:14:10.355Z,19.30
2018-05-09T06:15:05.929Z,19.30
2018-05-09T06:16:05.307Z,19.40
2018-05-09T06:17:05.194Z,19.60
2018-05-09T06:18:06.372Z,19.70
2018-05-09T06:19:05.327Z,19.80
2018-05-09T06:20:08.630Z,20.00
2018-05-09T06:21:05.703Z,20.10
2018-05-09T06:22:05.336Z,20.20
2018-05-09T06:23:05.965Z,20.30
2018-05-09T06:24:08.484Z,20.50
2018-05-09T06:25:06.225Z,20.50
2018-05-09T06:26:08.474Z,20.70
2018-05-09T06:27:06.337Z,20.70
2018-05-09T06:28:05.932Z,20.80
2018-05-09T06:29:05.745Z,20.90
2018-05-09T06:30:05.501Z,21.00
2018-05-09T06:31:05.144Z,21.10
2018-05-09T06:32:06.115Z,21.20
2018-05-09T06:33:05.757Z,21.30
2018-05-09T06:34:06.077Z,21.30
2018-05-09T06:35:08.197Z,21.50
2018-05-09T06:36:08.297Z,21.60
2018-05-09T06:37:08.429Z,21.70
2018-05-09T06:38:08.657Z,21.70
2018-05-09T06:39:10.218Z,21.80
2018-05-09T06:40:05.784Z,21.80
2018-05-09T06:41:05.952Z,21.90
2018-05-09T06:42:05.696Z,21.90
2018-05-09T06:43:05.290Z,22.00
2018-05-09T06:44:07.774Z,22.00
2018-05-09T06:45:05.469Z,22.00
2018-05-09T06:46:05.172Z,22.10
2018-05-09T06:47:05.887Z,22.10
2018-05-09T06:48:05.938Z,22.10
2018-05-09T06:49:05.954Z,22.20
2018-05-09T06:50:06.187Z,22.20
2018-05-09T06:51:05.321Z,22.20
2018-05-09T06:52:09.234Z,22.30
2018-05-09T06:53:06.004Z,22.30
2018-05-09T06:54:06.234Z,22.40
2018-05-09T06:55:06.598Z,22.40
2018-05-09T06:56:07.982Z,22.50
2018-05-09T06:57:10.453Z,22.50
2018-05-09T06:58:07.787Z,22.60
2018-05-09T06:59:05.512Z,22.60
2018-05-09T07:00:05.616Z,22.60
2018-05-09T07:01:08.378Z,22.70
2018-05-09T07:02:06.071Z,22.70
2018-05-09T07:03:06.437Z,22.70
2018-05-09T07:04:11.366Z,22.70
2018-05-09T07:05:08.391Z,22.80
2018-05-09T07:06:06.022Z,22.70
2018-05-09T07:07:05.759Z,22.80
2018-05-09T07:08:10.523Z,22.70
2018-05-09T07:09:05.921Z,22.70
2018-05-09T07:10:10.747Z,22.70
2018-05-09T07:11:07.858Z,22.80
2018-05-09T07:12:05.495Z,22.70
2018-05-09T07:13:07.951Z,22.80
2018-05-09T07:14:05.390Z,22.80
2018-05-09T07:15:05.805Z,22.90
2018-05-09T07:16:06.206Z,22.90
2018-05-09T07:17:06.753Z,22.90
2018-05-09T07:18:05.980Z,23.00
2018-05-09T07:19:08.532Z,23.00
2018-05-09T07:20:10.178Z,23.00
2018-05-09T07:21:06.289Z,23.10
2018-05-09T07:22:10.586Z,23.10
2018-05-09T07:23:10.624Z,23.00
2018-05-09T07:24:05.962Z,23.10
2018-05-09T07:25:08.823Z,23.00
2018-05-09T07:26:08.819Z,23.10
2018-05-09T07:27:10.668Z,23.10
2018-05-09T07:28:07.718Z,23.10
2018-05-09T07:29:05.222Z,23.10
2018-05-09T07:30:11.043Z,23.10
2018-05-09T07:31:06.281Z,23.10
2018-05-09T07:32:06.099Z,23.10
2018-05-09T07:33:05.425Z,23.20
2018-05-09T07:34:09.058Z,23.20
2018-05-09T07:35:06.684Z,23.20
2018-05-09T07:36:05.331Z,23.10
2018-05-09T07:37:06.292Z,23.10
2018-05-09T07:38:07.885Z,23.10
2018-05-09T07:39:09.189Z,23.00
2018-05-09T07:40:05.810Z,23.10
2018-05-09T07:41:06.025Z,23.10
2018-05-09T07:42:05.518Z,23.00
2018-05-09T07:43:05.993Z,23.00
2018-05-09T07:44:06.653Z,22.90
2018-05-09T07:45:05.823Z,22.80
2018-05-09T07:46:08.055Z,22.50
2018-05-09T07:47:10.968Z,22.40
2018-05-09T07:48:05.271Z,22.40
2018-05-09T07:49:10.739Z,22.30
2018-05-09T07:50:05.317Z,22.30
2018-05-09T07:51:11.118Z,22.20
2018-05-09T07:52:06.823Z,22.20
2018-05-09T07:53:11.816Z,22.20
2018-05-09T07:54:10.860Z,22.20
2018-05-09T07:55:06.038Z,22.20
2018-05-09T07:56:06.267Z,22.20
2018-05-09T07:57:10.841Z,22.10
2018-05-09T07:58:10.536Z,22.00
2018-05-09T07:59:06.508Z,22.00
2018-05-09T08:00:05.693Z,22.00
2018-05-09T08:01:08.051Z,22.00
2018-05-09T08:02:10.840Z,22.10
2018-05-09T08:03:08.029Z,22.00
2018-05-09T08:04:10.561Z,22.00
2018-05-09T08:05:08.635Z,22.00
2018-05-09T08:06:07.945Z,22.00
2018-05-09T08:07:08.304Z,22.10
2018-05-09T08:08:05.506Z,22.00
2018-05-09T08:09:05.391Z,22.10
2018-05-09T08:10:05.576Z,22.20
2018-05-09T08:11:10.501Z,22.40
2018-05-09T08:12:06.118Z,22.40
2018-05-09T08:13:05.781Z,22.50
2018-05-09T08:14:05.291Z,22.50
2018-05-09T08:15:06.003Z,22.50
2018-05-09T08:16:05.331Z,22.60
2018-05-09T08:17:08.050Z,22.60
2018-05-09T08:18:05.622Z,22.60
2018-05-09T08:19:05.569Z,22.60
2018-05-09T08:20:05.247Z,22.60
2018-05-09T08:21:11.585Z,22.60
2018-05-09T08:22:14.464Z,22.50
2018-05-09T08:23:06.142Z,22.50
2018-05-09T08:24:05.351Z,22.60
2018-05-09T08:25:06.338Z,22.60
2018-05-09T08:26:08.313Z,22.70
2018-05-09T08:27:08.923Z,22.70
2018-05-09T08:28:06.521Z,22.70
2018-05-09T08:29:05.730Z,22.70
2018-05-09T08:30:05.710Z,22.80
2018-05-09T08:31:05.880Z,22.90
2018-05-09T08:32:05.400Z,22.80
2018-05-09T08:33:05.321Z,22.90
2018-05-09T08:34:05.376Z,22.90
2018-05-09T08:35:11.053Z,23.00
2018-05-09T08:36:10.886Z,23.00
2018-05-09T08:37:08.469Z,23.00
2018-05-09T08:38:06.029Z,23.00
2018-05-09T08:39:10.773Z,23.10
2018-05-09T08:40:05.558Z,23.10
2018-05-09T08:41:08.714Z,23.10
2018-05-09T08:42:10.312Z,23.20
2018-05-09T08:43:06.017Z,23.20
2018-05-09T08:44:08.052Z,23.20
2018-05-09T08:45:05.476Z,23.30
2018-05-09T08:46:07.724Z,23.30
2018-05-09T08:47:10.353Z,23.30
2018-05-09T08:48:05.817Z,23.30
2018-05-09T08:49:05.909Z,23.40
2018-05-09T08:50:07.799Z,23.40
2018-05-09T08:51:05.326Z,23.40
2018-05-09T08:52:05.879Z,23.50
2018-05-09T08:53:05.498Z,23.50
2018-05-09T08:54:05.815Z,23.50
2018-05-09T08:55:05.450Z,23.50
2018-05-09T08:56:05.474Z,23.60
2018-05-09T08:57:06.082Z,23.60
2018-05-09T08:58:05.633Z,23.60
2018-05-09T08:59:05.799Z,23.70
2018-05-09T09:00:05.634Z,23.70
2018-05-09T09:01:11.211Z,23.70
2018-05-09T09:02:05.687Z,23.70
2018-05-09T09:03:08.435Z,23.70
2018-05-09T09:04:06.011Z,23.70
2018-05-09T09:05:05.646Z,23.70
2018-05-09T09:06:05.616Z,23.70
2018-05-09T09:07:10.310Z,23.60
2018-05-09T09:08:05.750Z,23.60
2018-05-09T09:09:06.190Z,23.60
2018-05-09T09:10:05.954Z,23.60
2018-05-09T09:11:08.305Z,23.60
2018-05-09T09:12:05.981Z,23.50
2018-05-09T09:13:05.613Z,23.60
2018-05-09T09:14:09.007Z,23.60
2018-05-09T09:15:05.664Z,23.60
2018-05-09T09:16:08.021Z,23.70
2018-05-09T09:17:06.110Z,23.70
2018-05-09T09:18:05.835Z,23.70
2018-05-09T09:19:11.133Z,23.60
2018-05-09T09:20:08.194Z,23.50
2018-05-09T09:21:05.872Z,23.50
2018-05-09T09:22:08.334Z,23.60
2018-05-09T09:23:08.729Z,23.60
2018-05-09T09:24:05.633Z,23.60
2018-05-09T09:25:11.164Z,23.60
2018-05-09T09:26:05.780Z,23.60
2018-05-09T09:27:05.200Z,23.70
2018-05-09T09:28:06.243Z,23.80
2018-05-09T09:29:05.234Z,23.80
2018-05-09T09:30:05.244Z,23.80
2018-05-09T09:31:06.245Z,23.80
2018-05-09T09:32:11.094Z,23.80
2018-05-09T09:33:05.618Z,23.80
2018-05-09T09:34:06.675Z,23.90
2018-05-09T09:35:08.760Z,24.00
2018-05-09T09:36:05.531Z,23.90
2018-05-09T09:37:10.368Z,24.00
2018-05-09T09:38:06.211Z,24.00
2018-05-09T09:39:11.022Z,24.00
2018-05-09T09:40:05.351Z,24.00
2018-05-09T09:41:11.154Z,24.00
2018-05-09T09:42:10.703Z,24.10
2018-05-09T09:43:07.927Z,24.10
2018-05-09T09:44:05.525Z,24.10
2018-05-09T09:45:05.268Z,24.10
2018-05-09T09:46:05.942Z,24.10
2018-05-09T09:47:05.476Z,24.10
2018-05-09T09:48:05.669Z,24.10
2018-05-09T09:49:06.212Z,24.10
2018-05-09T09:50:05.349Z,24.10
2018-05-09T09:51:11.247Z,24.20
2018-05-09T09:52:08.437Z,24.20
2018-05-09T09:53:06.121Z,24.20
2018-05-09T09:54:05.824Z,24.20
2018-05-09T09:55:05.657Z,24.20
2018-05-09T09:56:06.373Z,24.20
2018-05-09T09:57:05.330Z,24.20
2018-05-09T09:58:06.179Z,24.20
2018-05-09T09:59:06.919Z,24.20
2018-05-09T10:00:08.209Z,24.20
2018-05-09T10:01:08.369Z,24.20
2018-05-09T10:02:08.503Z,24.20
2018-05-09T10:03:06.150Z,24.20
2018-05-09T10:04:09.286Z,24.20
2018-05-09T10:05:06.274Z,24.20
2018-05-09T10:06:05.730Z,24.20
2018-05-09T10:07:13.038Z,24.10
2018-05-09T10:08:05.670Z,24.10
2018-05-09T10:09:08.292Z,24.20
2018-05-09T10:10:10.982Z,24.20
2018-05-09T10:11:05.617Z,24.20
2018-05-09T10:12:07.797Z,24.20
2018-05-09T10:13:06.037Z,24.20
2018-05-09T10:14:05.996Z,24.20
2018-05-09T10:15:05.864Z,24.20
2018-05-09T10:16:08.461Z,24.10
2018-05-09T10:17:05.438Z,24.10
2018-05-09T10:18:11.176Z,24.20
2018-05-09T10:19:08.859Z,24.20
2018-05-09T10:20:10.416Z,24.20
2018-05-09T10:21:08.718Z,24.20
2018-05-09T10:22:05.278Z,24.30
2018-05-09T10:23:06.074Z,24.40
2018-05-09T10:24:08.470Z,24.40
2018-05-09T10:25:11.008Z,24.40
2018-05-09T10:26:08.252Z,24.50
2018-05-09T10:27:08.638Z,24.50
2018-05-09T10:28:05.602Z,24.50
2018-05-09T10:29:10.475Z,24.50
2018-05-09T10:30:05.989Z,24.50
2018-05-09T10:31:08.882Z,24.60
2018-05-09T10:32:13.157Z,24.60
2018-05-09T10:33:06.005Z,24.60
2018-05-09T10:34:06.285Z,24.60
2018-05-09T10:35:05.626Z,24.60
2018-05-09T10:36:05.313Z,24.60
2018-05-09T10:37:10.968Z,24.50
2018-05-09T10:38:05.565Z,24.50
2018-05-09T10:39:08.119Z,24.40
2018-05-09T10:40:05.850Z,24.40
2018-05-09T10:41:05.778Z,24.40
2018-05-09T10:42:08.173Z,17.80
2018-05-09T10:43:08.252Z,24.20
2018-05-09T10:44:06.429Z,24.20
2018-05-09T10:45:08.828Z,24.00
2018-05-09T10:46:05.640Z,24.00
2018-05-09T10:47:05.799Z,24.00
2018-05-09T10:48:05.829Z,24.00
2018-05-09T10:49:05.385Z,24.00
2018-05-09T10:50:05.719Z,24.00
2018-05-09T10:51:12.965Z,24.00
2018-05-09T10:52:05.714Z,24.00
2018-05-09T10:53:05.368Z,24.00
2018-05-09T10:54:13.101Z,24.00
2018-05-09T10:55:05.874Z,24.00
2018-05-09T10:56:06.473Z,24.00
2018-05-09T10:57:05.684Z,24.10
2018-05-09T10:58:05.972Z,24.20
2018-05-09T10:59:05.640Z,24.20
2018-05-09T11:00:08.765Z,24.30
2018-05-09T11:01:10.356Z,24.30
2018-05-09T11:02:08.406Z,24.30
2018-05-09T11:03:10.698Z,24.30
2018-05-09T11:04:05.272Z,24.30
2018-05-09T11:05:06.071Z,24.30
2018-05-09T11:06:05.984Z,24.30
2018-05-09T11:07:05.671Z,24.30
2018-05-09T11:08:05.820Z,24.30
2018-05-09T11:09:07.062Z,24.30
2018-05-09T11:10:08.164Z,24.20
2018-05-09T11:11:08.840Z,24.10
2018-05-09T11:12:05.583Z,24.10
2018-05-09T11:13:06.335Z,24.10
2018-05-09T11:14:08.246Z,24.10
2018-05-09T11:15:08.356Z,24.00
2018-05-09T11:16:08.229Z,24.00
2018-05-09T11:17:05.889Z,24.00
2018-05-09T11:18:05.577Z,24.10
2018-05-09T11:19:09.263Z,24.20
2018-05-09T11:20:08.753Z,24.30
2018-05-09T11:21:08.710Z,24.40
2018-05-09T11:22:08.632Z,24.50
2018-05-09T11:23:05.364Z,24.50
2018-05-09T11:24:11.320Z,24.60
2018-05-09T11:25:05.853Z,24.50
2018-05-09T11:26:06.066Z,24.60
2018-05-09T11:27:12.758Z,24.50
2018-05-09T11:28:05.392Z,24.50
2018-05-09T11:29:06.459Z,24.50
2018-05-09T11:30:05.452Z,24.40
2018-05-09T11:31:05.593Z,24.40
2018-05-09T11:32:08.476Z,24.40
2018-05-09T11:33:08.621Z,24.40
2018-05-09T11:34:08.759Z,24.50
2018-05-09T11:35:05.769Z,24.50
2018-05-09T11:36:08.172Z,24.70
2018-05-09T11:37:06.146Z,24.60
2018-05-09T11:38:10.865Z,24.70
2018-05-09T11:39:06.050Z,24.70
2018-05-09T11:40:05.564Z,24.70
2018-05-09T11:41:05.355Z,24.70
2018-05-09T11:42:07.726Z,24.60
2018-05-09T11:43:07.933Z,24.50
2018-05-09T11:44:10.580Z,24.50
2018-05-09T11:45:08.724Z,24.40
2018-05-09T11:46:08.009Z,24.40
2018-05-09T11:47:05.668Z,24.30
2018-05-09T11:48:05.416Z,24.30
2018-05-09T11:49:05.424Z,24.30
2018-05-09T11:50:06.106Z,24.30
2018-05-09T11:51:09.598Z,24.40
2018-05-09T11:52:10.835Z,24.50
2018-05-09T11:53:05.589Z,24.50
2018-05-09T11:54:05.642Z,24.60
2018-05-09T11:55:05.212Z,24.60
2018-05-09T11:56:05.823Z,24.70
2018-05-09T11:57:05.312Z,24.80
2018-05-09T11:58:06.139Z,24.80
2018-05-09T11:59:08.614Z,24.90
2018-05-09T12:00:10.331Z,24.90
2018-05-09T12:01:09.084Z,24.80
2018-05-09T12:02:13.486Z,24.80
2018-05-09T12:03:06.073Z,24.80
2018-05-09T12:04:06.111Z,24.70
2018-05-09T12:05:08.463Z,24.60
2018-05-09T12:06:06.104Z,24.60
2018-05-09T12:07:05.613Z,24.60
2018-05-09T12:08:05.622Z,24.60
2018-05-09T12:09:05.403Z,24.60
2018-05-09T12:10:06.160Z,24.60
2018-05-09T12:11:05.930Z,24.60
2018-05-09T12:12:08.234Z,24.70
2018-05-09T12:13:05.912Z,24.70
2018-05-09T12:14:05.646Z,24.80
2018-05-09T12:15:05.809Z,24.80
2018-05-09T12:16:08.169Z,24.80
2018-05-09T12:17:06.246Z,24.80
2018-05-09T12:18:06.254Z,24.80
2018-05-09T12:19:05.885Z,24.80
2018-05-09T12:20:08.112Z,24.90
2018-05-09T12:21:05.493Z,25.00
2018-05-09T12:22:07.828Z,25.10
2018-05-09T12:23:08.437Z,25.10
2018-05-09T12:24:05.997Z,25.10
2018-05-09T12:25:10.986Z,25.00
2018-05-09T12:26:05.596Z,25.10
2018-05-09T12:27:06.408Z,25.00
2018-05-09T12:28:05.600Z,25.00
2018-05-09T12:29:06.230Z,25.00
2018-05-09T12:30:05.843Z,25.00
2018-05-09T12:31:10.627Z,25.10
2018-05-09T12:32:06.017Z,25.20
2018-05-09T12:33:06.031Z,25.20
2018-05-09T12:34:05.623Z,25.20
2018-05-09T12:35:08.663Z,25.10
2018-05-09T12:36:05.216Z,25.10
2018-05-09T12:37:05.941Z,25.10
2018-05-09T12:38:06.672Z,25.00
2018-05-09T12:39:05.303Z,25.00
2018-05-09T12:40:05.661Z,25.00
2018-05-09T12:41:05.494Z,25.00
2018-05-09T12:42:10.727Z,25.10
2018-05-09T12:43:08.697Z,25.10
2018-05-09T12:44:05.254Z,25.10
2018-05-09T12:45:05.300Z,25.10
2018-05-09T12:46:06.631Z,25.10
2018-05-09T12:47:10.388Z,25.10
2018-05-09T12:48:05.275Z,25.20
2018-05-09T12:49:08.576Z,25.30
2018-05-09T12:50:06.190Z,25.20
2018-05-09T12:51:06.121Z,25.30
2018-05-09T12:52:07.110Z,25.30